sensor_id;sensor_type;location;lat;lon;timestamp;P1;durP1;ratioP1;P2;durP2;ratioP2
75542;SDS011;64129;53.508;10.476;2022-11-21T00:00:51;35.47;;;18.08;;
75542;SDS011;64129;53.508;10.476;2022-11-21T00:03:18;34.30;;;17.27;;
75542;SDS011;64129;53.508;10.476;2022-11-21T00:05:45;29.50;;;18.00;;
75542;SDS011;64129;53.508;10.476;2022-11-21T00:08:15;32.95;;;16.30;;
75542;SDS011;64129;53.508;10.476;2022-11-21T00:10:44;34.83;;;17.98;;
75542;SDS011;64129;53.508;10.476;2022-11-21T00:13:18;50.53;;;17.83;;
75542;SDS011;64129;53.508;10.476;2022-11-21T00:15:46;34.85;;;17.35;;
75542;SDS011;64129;53.508;10.476;2022-11-21T00:18:13;58.85;;;17.27;;
75542;SDS011;64129;53.508;10.476;2022-11-21T00:20:40;36.38;;;18.10;;
75542;SDS011;64129;53.508;10.476;2022-11-21T00:23:07;30.88;;;17.05;;
75542;SDS011;64129;53.508;10.476;2022-11-21T00:25:34;80.18;;;18.83;;
75542;SDS011;64129;53.508;10.476;2022-11-21T00:28:01;49.00;;;17.02;;
75542;SDS011;64129;53.508;10.476;2022-11-21T00:30:28;58.10;;;16.88;;
75542;SDS011;64129;53.508;10.476;2022-11-21T00:32:56;50.13;;;17.80;;
75542;SDS011;64129;53.508;10.476;2022-11-21T00:35:23;37.22;;;15.20;;
75542;SDS011;64129;53.508;10.476;2022-11-21T00:37:50;68.80;;;16.08;;
75542;SDS011;64129;53.508;10.476;2022-11-21T00:40:16;31.05;;;15.27;;
75542;SDS011;64129;53.508;10.476;2022-11-21T00:42:43;35.58;;;14.13;;
75542;SDS011;64129;53.508;10.476;2022-11-21T00:45:10;69.75;;;16.52;;
75542;SDS011;64129;53.508;10.476;2022-11-21T00:47:36;43.75;;;16.73;;
75542;SDS011;64129;53.508;10.476;2022-11-21T00:50:03;28.88;;;15.52;;
75542;SDS011;64129;53.508;10.476;2022-11-21T00:52:30;29.20;;;15.35;;
75542;SDS011;64129;53.508;10.476;2022-11-21T00:54:56;26.48;;;14.02;;
75542;SDS011;64129;53.508;10.476;2022-11-21T00:57:23;27.42;;;16.00;;
75542;SDS011;64129;53.508;10.476;2022-11-21T00:59:49;26.75;;;14.02;;
75542;SDS011;64129;53.508;10.476;2022-11-21T01:02:16;36.50;;;16.85;;
75542;SDS011;64129;53.508;10.476;2022-11-21T01:04:42;42.28;;;13.15;;
75542;SDS011;64129;53.508;10.476;2022-11-21T01:07:08;26.05;;;15.05;;
75542;SDS011;64129;53.508;10.476;2022-11-21T01:09:35;22.75;;;13.43;;
75542;SDS011;64129;53.508;10.476;2022-11-21T01:12:01;40.75;;;13.73;;
75542;SDS011;64129;53.508;10.476;2022-11-21T01:14:28;21.98;;;13.65;;
75542;SDS011;64129;53.508;10.476;2022-11-21T01:16:54;23.92;;;12.88;;
75542;SDS011;64129;53.508;10.476;2022-11-21T01:19:21;21.40;;;12.48;;
75542;SDS011;64129;53.508;10.476;2022-11-21T01:21:47;29.38;;;12.07;;
75542;SDS011;64129;53.508;10.476;2022-11-21T01:24:14;25.05;;;12.25;;
75542;SDS011;64129;53.508;10.476;2022-11-21T01:26:40;23.88;;;13.85;;
75542;SDS011;64129;53.508;10.476;2022-11-21T01:29:07;20.85;;;12.10;;
75542;SDS011;64129;53.508;10.476;2022-11-21T01:31:34;23.35;;;13.20;;
75542;SDS011;64129;53.508;10.476;2022-11-21T01:34:01;24.48;;;14.35;;
75542;SDS011;64129;53.508;10.476;2022-11-21T01:36:29;24.15;;;13.57;;
75542;SDS011;64129;53.508;10.476;2022-11-21T01:38:58;23.65;;;13.77;;
75542;SDS011;64129;53.508;10.476;2022-11-21T01:41:36;22.83;;;13.57;;
75542;SDS011;64129;53.508;10.476;2022-11-21T01:44:17;24.00;;;13.88;;
75542;SDS011;64129;53.508;10.476;2022-11-21T01:46:45;20.60;;;10.65;;
75542;SDS011;64129;53.508;10.476;2022-11-21T01:49:17;26.08;;;13.45;;
75542;SDS011;64129;53.508;10.476;2022-11-21T01:51:54;21.38;;;11.50;;
75542;SDS011;64129;53.508;10.476;2022-11-21T01:59:54;19.38;;;11.15;;
75542;SDS011;64129;53.508;10.476;2022-11-21T02:02:22;25.65;;;13.73;;
75542;SDS011;64129;53.508;10.476;2022-11-21T02:04:52;21.23;;;12.43;;
75542;SDS011;64129;53.508;10.476;2022-11-21T02:07:21;27.13;;;13.02;;
75542;SDS011;64129;53.508;10.476;2022-11-21T02:09:51;22.17;;;12.13;;
75542;SDS011;64129;53.508;10.476;2022-11-21T02:12:25;25.27;;;11.98;;
75542;SDS011;64129;53.508;10.476;2022-11-21T02:14:56;29.70;;;12.38;;
75542;SDS011;64129;53.508;10.476;2022-11-21T02:17:24;28.40;;;15.05;;
75542;SDS011;64129;53.508;10.476;2022-11-21T02:19:54;25.77;;;13.68;;
75542;SDS011;64129;53.508;10.476;2022-11-21T02:25:29;32.40;;;14.15;;
75542;SDS011;64129;53.508;10.476;2022-11-21T02:27:58;25.90;;;13.80;;
75542;SDS011;64129;53.508;10.476;2022-11-21T02:30:28;23.48;;;14.02;;
75542;SDS011;64129;53.508;10.476;2022-11-21T02:32:57;22.95;;;13.82;;
75542;SDS011;64129;53.508;10.476;2022-11-21T02:35:24;22.55;;;13.48;;
75542;SDS011;64129;53.508;10.476;2022-11-21T02:37:52;27.83;;;14.15;;
75542;SDS011;64129;53.508;10.476;2022-11-21T02:40:24;22.27;;;12.93;;
75542;SDS011;64129;53.508;10.476;2022-11-21T02:43:02;24.05;;;13.32;;
75542;SDS011;64129;53.508;10.476;2022-11-21T02:48:06;24.45;;;13.85;;
75542;SDS011;64129;53.508;10.476;2022-11-21T02:50:34;23.50;;;12.23;;
75542;SDS011;64129;53.508;10.476;2022-11-21T02:53:02;22.80;;;14.45;;
75542;SDS011;64129;53.508;10.476;2022-11-21T02:55:30;22.67;;;13.30;;
75542;SDS011;64129;53.508;10.476;2022-11-21T02:57:57;26.15;;;13.90;;
75542;SDS011;64129;53.508;10.476;2022-11-21T03:00:25;22.02;;;13.50;;
75542;SDS011;64129;53.508;10.476;2022-11-21T03:02:52;22.10;;;13.57;;
75542;SDS011;64129;53.508;10.476;2022-11-21T03:05:19;25.50;;;14.30;;
75542;SDS011;64129;53.508;10.476;2022-11-21T03:07:46;21.55;;;13.73;;
75542;SDS011;64129;53.508;10.476;2022-11-21T03:10:13;20.63;;;12.27;;
75542;SDS011;64129;53.508;10.476;2022-11-21T03:12:40;25.40;;;13.00;;
75542;SDS011;64129;53.508;10.476;2022-11-21T03:15:09;22.08;;;12.00;;
75542;SDS011;64129;53.508;10.476;2022-11-21T03:17:37;22.17;;;11.18;;
75542;SDS011;64129;53.508;10.476;2022-11-21T03:20:04;24.02;;;13.05;;
75542;SDS011;64129;53.508;10.476;2022-11-21T03:22:32;20.48;;;11.18;;
75542;SDS011;64129;53.508;10.476;2022-11-21T03:24:59;33.45;;;15.00;;
75542;SDS011;64129;53.508;10.476;2022-11-21T03:27:25;27.00;;;13.80;;
75542;SDS011;64129;53.508;10.476;2022-11-21T03:29:52;25.00;;;13.40;;
75542;SDS011;64129;53.508;10.476;2022-11-21T03:32:18;29.52;;;13.27;;
75542;SDS011;64129;53.508;10.476;2022-11-21T03:34:45;35.75;;;16.17;;
75542;SDS011;64129;53.508;10.476;2022-11-21T03:37:11;28.10;;;13.88;;
75542;SDS011;64129;53.508;10.476;2022-11-21T03:39:38;27.58;;;12.80;;
75542;SDS011;64129;53.508;10.476;2022-11-21T03:42:04;29.02;;;14.10;;
75542;SDS011;64129;53.508;10.476;2022-11-21T03:44:30;28.65;;;12.52;;
75542;SDS011;64129;53.508;10.476;2022-11-21T03:46:57;25.77;;;11.90;;
75542;SDS011;64129;53.508;10.476;2022-11-21T03:49:24;26.58;;;14.05;;
75542;SDS011;64129;53.508;10.476;2022-11-21T03:51:50;30.25;;;15.27;;
75542;SDS011;64129;53.508;10.476;2022-11-21T03:54:16;28.95;;;15.52;;
75542;SDS011;64129;53.508;10.476;2022-11-21T03:56:43;21.55;;;12.00;;
75542;SDS011;64129;53.508;10.476;2022-11-21T03:59:09;29.77;;;13.30;;
75542;SDS011;64129;53.508;10.476;2022-11-21T04:01:36;23.92;;;12.30;;
75542;SDS011;64129;53.508;10.476;2022-11-21T04:04:03;31.05;;;13.32;;
75542;SDS011;64129;53.508;10.476;2022-11-21T04:06:30;23.38;;;13.05;;
75542;SDS011;64129;53.508;10.476;2022-11-21T04:08:56;27.40;;;13.50;;
75542;SDS011;64129;53.508;10.476;2022-11-21T04:11:23;24.45;;;13.05;;
75542;SDS011;64129;53.508;10.476;2022-11-21T04:13:50;24.45;;;13.40;;
75542;SDS011;64129;53.508;10.476;2022-11-21T04:16:17;24.38;;;13.32;;
75542;SDS011;64129;53.508;10.476;2022-11-21T04:18:43;24.35;;;13.32;;
75542;SDS011;64129;53.508;10.476;2022-11-21T04:21:10;24.45;;;12.65;;
75542;SDS011;64129;53.508;10.476;2022-11-21T04:23:36;25.17;;;13.07;;
75542;SDS011;64129;53.508;10.476;2022-11-21T04:26:03;26.42;;;14.20;;
75542;SDS011;64129;53.508;10.476;2022-11-21T04:28:30;23.48;;;11.85;;
75542;SDS011;64129;53.508;10.476;2022-11-21T04:31:03;26.55;;;13.25;;
75542;SDS011;64129;53.508;10.476;2022-11-21T04:33:34;25.70;;;10.48;;
75542;SDS011;64129;53.508;10.476;2022-11-21T04:36:00;26.55;;;13.43;;
75542;SDS011;64129;53.508;10.476;2022-11-21T04:38:27;27.52;;;13.30;;
75542;SDS011;64129;53.508;10.476;2022-11-21T04:40:53;24.70;;;10.60;;
75542;SDS011;64129;53.508;10.476;2022-11-21T04:43:20;21.55;;;11.55;;
75542;SDS011;64129;53.508;10.476;2022-11-21T04:45:46;24.88;;;12.13;;
75542;SDS011;64129;53.508;10.476;2022-11-21T04:48:12;22.60;;;12.93;;
75542;SDS011;64129;53.508;10.476;2022-11-21T04:50:39;21.00;;;12.32;;
75542;SDS011;64129;53.508;10.476;2022-11-21T04:53:05;30.63;;;13.20;;
75542;SDS011;64129;53.508;10.476;2022-11-21T04:55:32;29.80;;;13.60;;
75542;SDS011;64129;53.508;10.476;2022-11-21T04:57:58;29.08;;;13.13;;
75542;SDS011;64129;53.508;10.476;2022-11-21T05:00:25;28.52;;;14.20;;
75542;SDS011;64129;53.508;10.476;2022-11-21T05:02:52;22.00;;;12.00;;
75542;SDS011;64129;53.508;10.476;2022-11-21T05:05:19;26.05;;;13.25;;
75542;SDS011;64129;53.508;10.476;2022-11-21T05:07:45;24.23;;;11.63;;
75542;SDS011;64129;53.508;10.476;2022-11-21T05:10:12;15.80;;;8.18;;
75542;SDS011;64129;53.508;10.476;2022-11-21T05:12:38;25.95;;;13.63;;
75542;SDS011;64129;53.508;10.476;2022-11-21T05:15:23;20.52;;;11.32;;
75542;SDS011;64129;53.508;10.476;2022-11-21T05:17:50;22.00;;;11.55;;
75542;SDS011;64129;53.508;10.476;2022-11-21T05:20:16;25.88;;;13.07;;
75542;SDS011;64129;53.508;10.476;2022-11-21T05:22:43;24.95;;;11.02;;
75542;SDS011;64129;53.508;10.476;2022-11-21T05:25:15;23.83;;;12.18;;
75542;SDS011;64129;53.508;10.476;2022-11-21T05:27:41;22.58;;;11.02;;
75542;SDS011;64129;53.508;10.476;2022-11-21T05:30:08;27.00;;;12.98;;
75542;SDS011;64129;53.508;10.476;2022-11-21T05:32:36;32.08;;;13.25;;
75542;SDS011;64129;53.508;10.476;2022-11-21T05:35:03;28.02;;;11.90;;
75542;SDS011;64129;53.508;10.476;2022-11-21T05:37:29;24.63;;;12.30;;
75542;SDS011;64129;53.508;10.476;2022-11-21T05:39:56;21.95;;;10.50;;
75542;SDS011;64129;53.508;10.476;2022-11-21T05:42:22;24.48;;;12.60;;
75542;SDS011;64129;53.508;10.476;2022-11-21T05:45:09;21.05;;;11.55;;
75542;SDS011;64129;53.508;10.476;2022-11-21T05:47:35;22.23;;;10.35;;
75542;SDS011;64129;53.508;10.476;2022-11-21T05:50:02;29.33;;;13.88;;
75542;SDS011;64129;53.508;10.476;2022-11-21T05:52:29;26.08;;;13.23;;
75542;SDS011;64129;53.508;10.476;2022-11-21T05:54:56;26.00;;;12.93;;
75542;SDS011;64129;53.508;10.476;2022-11-21T05:57:22;27.50;;;11.75;;
75542;SDS011;64129;53.508;10.476;2022-11-21T05:59:48;33.38;;;13.90;;
75542;SDS011;64129;53.508;10.476;2022-11-21T06:02:15;27.40;;;12.48;;
75542;SDS011;64129;53.508;10.476;2022-11-21T06:05:00;20.92;;;9.43;;
75542;SDS011;64129;53.508;10.476;2022-11-21T06:07:27;24.58;;;12.07;;
75542;SDS011;64129;53.508;10.476;2022-11-21T06:09:53;24.45;;;13.23;;
75542;SDS011;64129;53.508;10.476;2022-11-21T06:12:20;19.65;;;10.77;;
75542;SDS011;64129;53.508;10.476;2022-11-21T06:14:49;20.83;;;12.30;;
75542;SDS011;64129;53.508;10.476;2022-11-21T06:17:16;22.67;;;11.05;;
75542;SDS011;64129;53.508;10.476;2022-11-21T06:19:42;28.50;;;10.73;;
75542;SDS011;64129;53.508;10.476;2022-11-21T06:22:09;23.42;;;11.40;;
75542;SDS011;64129;53.508;10.476;2022-11-21T06:24:35;19.40;;;9.32;;
75542;SDS011;64129;53.508;10.476;2022-11-21T06:27:01;26.00;;;13.10;;
75542;SDS011;64129;53.508;10.476;2022-11-21T06:29:28;27.25;;;12.27;;
75542;SDS011;64129;53.508;10.476;2022-11-21T06:31:54;33.17;;;14.35;;
75542;SDS011;64129;53.508;10.476;2022-11-21T06:34:21;24.05;;;10.55;;
75542;SDS011;64129;53.508;10.476;2022-11-21T06:36:47;25.13;;;11.65;;
75542;SDS011;64129;53.508;10.476;2022-11-21T06:39:14;23.35;;;11.93;;
75542;SDS011;64129;53.508;10.476;2022-11-21T06:41:41;24.15;;;12.40;;
75542;SDS011;64129;53.508;10.476;2022-11-21T06:44:07;27.08;;;12.43;;
75542;SDS011;64129;53.508;10.476;2022-11-21T06:46:34;20.95;;;11.05;;
75542;SDS011;64129;53.508;10.476;2022-11-21T06:49:00;26.88;;;12.55;;
75542;SDS011;64129;53.508;10.476;2022-11-21T06:51:27;20.45;;;10.18;;
75542;SDS011;64129;53.508;10.476;2022-11-21T06:53:54;21.85;;;10.55;;
75542;SDS011;64129;53.508;10.476;2022-11-21T06:56:23;26.17;;;13.27;;
75542;SDS011;64129;53.508;10.476;2022-11-21T06:58:51;21.20;;;11.32;;
75542;SDS011;64129;53.508;10.476;2022-11-21T07:01:18;20.65;;;10.85;;
75542;SDS011;64129;53.508;10.476;2022-11-21T07:03:44;27.33;;;12.57;;
75542;SDS011;64129;53.508;10.476;2022-11-21T07:06:11;25.17;;;12.13;;
75542;SDS011;64129;53.508;10.476;2022-11-21T07:08:37;23.30;;;11.38;;
75542;SDS011;64129;53.508;10.476;2022-11-21T07:13:50;10.43;;;5.78;;
75542;SDS011;64129;53.508;10.476;2022-11-21T07:16:16;26.95;;;11.70;;
75542;SDS011;64129;53.508;10.476;2022-11-21T07:18:42;25.42;;;11.00;;
75542;SDS011;64129;53.508;10.476;2022-11-21T07:21:10;25.35;;;11.02;;
75542;SDS011;64129;53.508;10.476;2022-11-21T07:23:37;26.42;;;12.07;;
75542;SDS011;64129;53.508;10.476;2022-11-21T07:26:06;18.38;;;9.77;;
75542;SDS011;64129;53.508;10.476;2022-11-21T07:28:35;28.92;;;12.38;;
75542;SDS011;64129;53.508;10.476;2022-11-21T07:31:01;26.52;;;13.10;;
75542;SDS011;64129;53.508;10.476;2022-11-21T07:33:30;20.27;;;9.02;;
75542;SDS011;64129;53.508;10.476;2022-11-21T07:35:56;29.75;;;13.15;;
75542;SDS011;64129;53.508;10.476;2022-11-21T07:38:24;32.95;;;11.52;;
75542;SDS011;64129;53.508;10.476;2022-11-21T07:40:51;31.77;;;13.15;;
75542;SDS011;64129;53.508;10.476;2022-11-21T07:43:18;25.27;;;10.77;;
75542;SDS011;64129;53.508;10.476;2022-11-21T07:45:45;32.40;;;13.95;;
75542;SDS011;64129;53.508;10.476;2022-11-21T07:48:11;28.35;;;10.73;;
75542;SDS011;64129;53.508;10.476;2022-11-21T07:50:38;24.10;;;11.35;;
75542;SDS011;64129;53.508;10.476;2022-11-21T07:53:05;19.40;;;9.98;;
75542;SDS011;64129;53.508;10.476;2022-11-21T07:55:33;27.02;;;11.75;;
75542;SDS011;64129;53.508;10.476;2022-11-21T07:58:06;24.63;;;11.32;;
75542;SDS011;64129;53.508;10.476;2022-11-21T08:00:35;25.52;;;12.68;;
75542;SDS011;64129;53.508;10.476;2022-11-21T08:05:30;27.77;;;12.23;;
75542;SDS011;64129;53.508;10.476;2022-11-21T08:07:57;28.77;;;13.05;;
75542;SDS011;64129;53.508;10.476;2022-11-21T08:10:23;26.60;;;11.30;;
75542;SDS011;64129;53.508;10.476;2022-11-21T08:12:49;24.80;;;11.25;;
75542;SDS011;64129;53.508;10.476;2022-11-21T08:15:16;26.13;;;12.30;;
75542;SDS011;64129;53.508;10.476;2022-11-21T08:17:42;25.35;;;11.05;;
75542;SDS011;64129;53.508;10.476;2022-11-21T08:20:09;22.73;;;9.98;;
75542;SDS011;64129;53.508;10.476;2022-11-21T08:22:37;23.30;;;12.10;;
75542;SDS011;64129;53.508;10.476;2022-11-21T08:25:05;24.05;;;9.38;;
75542;SDS011;64129;53.508;10.476;2022-11-21T08:27:32;24.33;;;11.10;;
75542;SDS011;64129;53.508;10.476;2022-11-21T08:29:58;25.60;;;11.90;;
75542;SDS011;64129;53.508;10.476;2022-11-21T08:32:25;23.40;;;11.43;;
75542;SDS011;64129;53.508;10.476;2022-11-21T08:34:51;21.42;;;10.50;;
75542;SDS011;64129;53.508;10.476;2022-11-21T08:37:18;16.67;;;9.18;;
75542;SDS011;64129;53.508;10.476;2022-11-21T08:39:44;19.45;;;10.15;;
75542;SDS011;64129;53.508;10.476;2022-11-21T08:42:11;18.60;;;10.20;;
75542;SDS011;64129;53.508;10.476;2022-11-21T08:44:37;18.48;;;8.93;;
75542;SDS011;64129;53.508;10.476;2022-11-21T08:47:04;20.92;;;9.75;;
75542;SDS011;64129;53.508;10.476;2022-11-21T08:49:31;20.63;;;9.52;;
75542;SDS011;64129;53.508;10.476;2022-11-21T08:51:58;21.30;;;9.98;;
75542;SDS011;64129;53.508;10.476;2022-11-21T08:54:24;17.42;;;9.60;;
75542;SDS011;64129;53.508;10.476;2022-11-21T08:56:51;19.25;;;10.18;;
75542;SDS011;64129;53.508;10.476;2022-11-21T08:59:18;19.65;;;9.40;;
75542;SDS011;64129;53.508;10.476;2022-11-21T09:01:45;16.13;;;8.95;;
75542;SDS011;64129;53.508;10.476;2022-11-21T09:04:11;19.67;;;9.57;;
75542;SDS011;64129;53.508;10.476;2022-11-21T09:06:38;18.85;;;9.10;;
75542;SDS011;64129;53.508;10.476;2022-11-21T09:09:05;22.95;;;10.73;;
75542;SDS011;64129;53.508;10.476;2022-11-21T09:11:32;17.27;;;9.00;;
75542;SDS011;64129;53.508;10.476;2022-11-21T09:14:02;20.67;;;11.35;;
75542;SDS011;64129;53.508;10.476;2022-11-21T09:16:48;18.77;;;9.77;;
75542;SDS011;64129;53.508;10.476;2022-11-21T09:19:33;20.52;;;9.27;;
75542;SDS011;64129;53.508;10.476;2022-11-21T09:21:59;21.35;;;10.35;;
75542;SDS011;64129;53.508;10.476;2022-11-21T09:24:26;22.90;;;11.52;;
75542;SDS011;64129;53.508;10.476;2022-11-21T09:26:52;22.75;;;10.63;;
75542;SDS011;64129;53.508;10.476;2022-11-21T09:29:19;20.77;;;10.27;;
75542;SDS011;64129;53.508;10.476;2022-11-21T09:31:46;24.48;;;11.43;;
75542;SDS011;64129;53.508;10.476;2022-11-21T09:34:12;19.00;;;10.82;;
75542;SDS011;64129;53.508;10.476;2022-11-21T09:36:39;20.80;;;9.45;;
75542;SDS011;64129;53.508;10.476;2022-11-21T09:39:05;12.23;;;6.60;;
75542;SDS011;64129;53.508;10.476;2022-11-21T09:47:22;22.80;;;10.95;;
75542;SDS011;64129;53.508;10.476;2022-11-21T09:50:00;24.35;;;10.35;;
75542;SDS011;64129;53.508;10.476;2022-11-21T09:52:43;22.42;;;11.23;;
75542;SDS011;64129;53.508;10.476;2022-11-21T09:55:20;16.42;;;7.55;;
75542;SDS011;64129;53.508;10.476;2022-11-21T09:57:54;25.85;;;11.75;;
75542;SDS011;64129;53.508;10.476;2022-11-21T10:00:25;25.30;;;10.98;;
75542;SDS011;64129;53.508;10.476;2022-11-21T10:02:52;20.15;;;11.80;;
75542;SDS011;64129;53.508;10.476;2022-11-21T10:05:31;21.73;;;11.30;;
75542;SDS011;64129;53.508;10.476;2022-11-21T10:08:04;21.85;;;10.25;;
75542;SDS011;64129;53.508;10.476;2022-11-21T10:10:45;23.25;;;9.95;;
75542;SDS011;64129;53.508;10.476;2022-11-21T10:16:12;21.63;;;11.40;;
75542;SDS011;64129;53.508;10.476;2022-11-21T10:27:15;20.25;;;9.88;;
75542;SDS011;64129;53.508;10.476;2022-11-21T10:29:58;24.98;;;12.48;;
75542;SDS011;64129;53.508;10.476;2022-11-21T10:32:35;23.90;;;11.80;;
75542;SDS011;64129;53.508;10.476;2022-11-21T10:35:11;24.23;;;13.00;;
75542;SDS011;64129;53.508;10.476;2022-11-21T10:37:39;19.67;;;11.15;;
75542;SDS011;64129;53.508;10.476;2022-11-21T10:43:01;23.05;;;11.90;;
75542;SDS011;64129;53.508;10.476;2022-11-21T10:45:52;21.27;;;11.57;;
75542;SDS011;64129;53.508;10.476;2022-11-21T10:48:19;22.13;;;10.23;;
75542;SDS011;64129;53.508;10.476;2022-11-21T10:50:52;22.73;;;13.15;;
75542;SDS011;64129;53.508;10.476;2022-11-21T10:53:31;19.75;;;10.63;;
75542;SDS011;64129;53.508;10.476;2022-11-21T10:56:16;19.17;;;10.52;;
75542;SDS011;64129;53.508;10.476;2022-11-21T10:58:46;22.60;;;10.75;;
75542;SDS011;64129;53.508;10.476;2022-11-21T11:01:29;22.05;;;12.85;;
75542;SDS011;64129;53.508;10.476;2022-11-21T11:04:33;20.30;;;12.45;;
75542;SDS011;64129;53.508;10.476;2022-11-21T11:06:55;21.15;;;12.60;;
75542;SDS011;64129;53.508;10.476;2022-11-21T11:09:29;18.95;;;10.25;;
75542;SDS011;64129;53.508;10.476;2022-11-21T11:17:55;17.17;;;9.82;;
75542;SDS011;64129;53.508;10.476;2022-11-21T11:20:32;16.10;;;9.68;;
75542;SDS011;64129;53.508;10.476;2022-11-21T11:23:21;17.45;;;9.60;;
75542;SDS011;64129;53.508;10.476;2022-11-21T11:25:56;19.02;;;9.32;;
75542;SDS011;64129;53.508;10.476;2022-11-21T11:28:25;14.88;;;8.90;;
75542;SDS011;64129;53.508;10.476;2022-11-21T11:30:58;17.40;;;9.23;;
75542;SDS011;64129;53.508;10.476;2022-11-21T11:36:14;14.05;;;8.38;;
75542;SDS011;64129;53.508;10.476;2022-11-21T11:38:54;15.13;;;8.98;;
75542;SDS011;64129;53.508;10.476;2022-11-21T11:41:33;13.32;;;7.63;;
75542;SDS011;64129;53.508;10.476;2022-11-21T11:45:13;11.52;;;7.22;;
75542;SDS011;64129;53.508;10.476;2022-11-21T11:50:30;12.38;;;8.15;;
75542;SDS011;64129;53.508;10.476;2022-11-21T11:58:28;13.07;;;7.68;;
75542;SDS011;64129;53.508;10.476;2022-11-21T12:00:58;9.15;;;5.30;;
75542;SDS011;64129;53.508;10.476;2022-11-21T12:06:11;13.35;;;8.40;;
75542;SDS011;64129;53.508;10.476;2022-11-21T12:08:45;12.40;;;8.00;;
75542;SDS011;64129;53.508;10.476;2022-11-21T12:11:17;13.35;;;7.93;;
75542;SDS011;64129;53.508;10.476;2022-11-21T12:14:29;12.13;;;7.32;;
75542;SDS011;64129;53.508;10.476;2022-11-21T12:17:18;11.95;;;6.68;;
75542;SDS011;64129;53.508;10.476;2022-11-21T12:19:46;13.10;;;8.15;;
75542;SDS011;64129;53.508;10.476;2022-11-21T12:22:18;12.20;;;7.72;;
75542;SDS011;64129;53.508;10.476;2022-11-21T12:24:44;13.45;;;7.85;;
75542;SDS011;64129;53.508;10.476;2022-11-21T12:40:49;12.10;;;7.15;;
75542;SDS011;64129;53.508;10.476;2022-11-21T12:47:06;10.07;;;6.75;;
75542;SDS011;64129;53.508;10.476;2022-11-21T12:55:10;11.55;;;7.10;;
75542;SDS011;64129;53.508;10.476;2022-11-21T13:06:13;12.38;;;7.57;;
75542;SDS011;64129;53.508;10.476;2022-11-21T13:08:51;13.35;;;7.15;;
75542;SDS011;64129;53.508;10.476;2022-11-21T13:11:23;11.05;;;7.18;;
75542;SDS011;64129;53.508;10.476;2022-11-21T13:14:29;12.90;;;8.02;;
75542;SDS011;64129;53.508;10.476;2022-11-21T13:17:08;10.98;;;6.97;;
75542;SDS011;64129;53.508;10.476;2022-11-21T13:28:21;13.05;;;7.93;;
75542;SDS011;64129;53.508;10.476;2022-11-21T13:33:43;11.93;;;6.95;;
75542;SDS011;64129;53.508;10.476;2022-11-21T13:39:37;13.63;;;7.38;;
75542;SDS011;64129;53.508;10.476;2022-11-21T13:47:00;12.93;;;8.07;;
75542;SDS011;64129;53.508;10.476;2022-11-21T13:49:48;12.68;;;7.28;;
75542;SDS011;64129;53.508;10.476;2022-11-21T14:00:47;10.52;;;6.68;;
75542;SDS011;64129;53.508;10.476;2022-11-21T14:09:05;11.57;;;6.50;;
75542;SDS011;64129;53.508;10.476;2022-11-21T14:11:47;11.70;;;6.88;;
75542;SDS011;64129;53.508;10.476;2022-11-21T14:14:28;8.35;;;5.30;;
75542;SDS011;64129;53.508;10.476;2022-11-21T14:19:55;11.55;;;6.57;;
75542;SDS011;64129;53.508;10.476;2022-11-21T14:22:30;9.82;;;5.72;;
75542;SDS011;64129;53.508;10.476;2022-11-21T14:25:08;8.40;;;5.53;;
75542;SDS011;64129;53.508;10.476;2022-11-21T14:27:40;9.18;;;5.93;;
75542;SDS011;64129;53.508;10.476;2022-11-21T14:30:24;7.70;;;5.80;;
75542;SDS011;64129;53.508;10.476;2022-11-21T14:32:53;11.15;;;6.18;;
75542;SDS011;64129;53.508;10.476;2022-11-21T14:35:21;10.80;;;6.82;;
75542;SDS011;64129;53.508;10.476;2022-11-21T14:37:49;9.55;;;5.93;;
75542;SDS011;64129;53.508;10.476;2022-11-21T14:40:20;8.80;;;6.30;;
75542;SDS011;64129;53.508;10.476;2022-11-21T14:42:48;10.27;;;6.03;;
75542;SDS011;64129;53.508;10.476;2022-11-21T14:47:50;11.88;;;6.10;;
75542;SDS011;64129;53.508;10.476;2022-11-21T14:50:28;8.60;;;5.90;;
75542;SDS011;64129;53.508;10.476;2022-11-21T14:52:58;8.95;;;5.90;;
75542;SDS011;64129;53.508;10.476;2022-11-21T14:55:28;11.50;;;6.95;;
75542;SDS011;64129;53.508;10.476;2022-11-21T14:57:57;9.45;;;6.90;;
75542;SDS011;64129;53.508;10.476;2022-11-21T15:00:27;10.45;;;6.15;;
75542;SDS011;64129;53.508;10.476;2022-11-21T15:03:18;11.35;;;6.88;;
75542;SDS011;64129;53.508;10.476;2022-11-21T15:05:47;8.88;;;5.15;;
75542;SDS011;64129;53.508;10.476;2022-11-21T15:08:26;7.50;;;5.53;;
75542;SDS011;64129;53.508;10.476;2022-11-21T15:11:13;7.63;;;4.68;;
75542;SDS011;64129;53.508;10.476;2022-11-21T15:13:46;8.57;;;5.63;;
75542;SDS011;64129;53.508;10.476;2022-11-21T15:16:37;9.02;;;6.10;;
75542;SDS011;64129;53.508;10.476;2022-11-21T15:19:08;9.45;;;5.50;;
75542;SDS011;64129;53.508;10.476;2022-11-21T15:21:35;9.23;;;5.97;;
75542;SDS011;64129;53.508;10.476;2022-11-21T15:24:15;8.52;;;5.43;;
75542;SDS011;64129;53.508;10.476;2022-11-21T15:26:57;8.02;;;5.18;;
75542;SDS011;64129;53.508;10.476;2022-11-21T15:29:24;6.38;;;5.03;;
75542;SDS011;64129;53.508;10.476;2022-11-21T15:32:09;7.55;;;4.80;;
75542;SDS011;64129;53.508;10.476;2022-11-21T15:34:39;7.93;;;5.22;;
75542;SDS011;64129;53.508;10.476;2022-11-21T15:37:15;9.77;;;5.50;;
75542;SDS011;64129;53.508;10.476;2022-11-21T15:39:43;9.07;;;5.45;;
75542;SDS011;64129;53.508;10.476;2022-11-21T15:45:03;8.60;;;5.45;;
75542;SDS011;64129;53.508;10.476;2022-11-21T15:47:47;8.35;;;5.20;;
75542;SDS011;64129;53.508;10.476;2022-11-21T15:50:14;12.57;;;6.30;;
75542;SDS011;64129;53.508;10.476;2022-11-21T15:52:47;9.40;;;5.97;;
75542;SDS011;64129;53.508;10.476;2022-11-21T15:55:20;11.30;;;5.80;;
75542;SDS011;64129;53.508;10.476;2022-11-21T15:57:51;9.80;;;6.00;;
75542;SDS011;64129;53.508;10.476;2022-11-21T16:00:17;9.35;;;5.65;;
75542;SDS011;64129;53.508;10.476;2022-11-21T16:02:44;7.85;;;6.07;;
75542;SDS011;64129;53.508;10.476;2022-11-21T16:05:11;8.93;;;5.85;;
75542;SDS011;64129;53.508;10.476;2022-11-21T16:07:39;8.88;;;5.95;;
75542;SDS011;64129;53.508;10.476;2022-11-21T16:10:06;8.45;;;5.07;;
75542;SDS011;64129;53.508;10.476;2022-11-21T16:12:36;10.88;;;5.63;;
75542;SDS011;64129;53.508;10.476;2022-11-21T16:15:03;9.30;;;6.40;;
75542;SDS011;64129;53.508;10.476;2022-11-21T16:17:29;10.38;;;6.55;;
75542;SDS011;64129;53.508;10.476;2022-11-21T16:19:56;9.50;;;6.15;;
75542;SDS011;64129;53.508;10.476;2022-11-21T16:22:22;9.48;;;6.50;;
75542;SDS011;64129;53.508;10.476;2022-11-21T16:24:49;10.43;;;6.55;;
75542;SDS011;64129;53.508;10.476;2022-11-21T16:27:15;9.15;;;5.72;;
75542;SDS011;64129;53.508;10.476;2022-11-21T16:29:42;9.38;;;6.13;;
75542;SDS011;64129;53.508;10.476;2022-11-21T16:32:08;7.65;;;5.50;;
75542;SDS011;64129;53.508;10.476;2022-11-21T16:34:35;7.97;;;5.55;;
75542;SDS011;64129;53.508;10.476;2022-11-21T16:37:01;9.50;;;5.35;;
75542;SDS011;64129;53.508;10.476;2022-11-21T16:39:31;9.60;;;6.40;;